createdAt,value
2018-10-12T00:01:19.392Z,13.71
2018-10-12T00:04:23.762Z,13.69
2018-10-12T00:07:28.082Z,13.63
2018-10-12T00:10:32.367Z,13.59
2018-10-12T00:13:36.648Z,13.57
2018-10-12T00:16:40.954Z,13.55
2018-10-12T00:19:45.201Z,13.54
2018-10-12T00:26:02.201Z,13.42
2018-10-12T00:29:06.615Z,13.37
2018-10-12T00:32:10.875Z,13.36
2018-10-12T00:35:15.207Z,13.32
2018-10-12T00:38:19.515Z,13.31
2018-10-12T00:41:23.804Z,13.33
2018-10-12T00:44:28.108Z,13.35
2018-10-12T00:47:32.371Z,13.35
2018-10-12T00:50:36.666Z,13.33
2018-10-12T00:53:40.970Z,13.33
2018-10-12T00:56:45.248Z,13.34
2018-10-12T00:59:49.530Z,13.36
2018-10-12T01:02:53.804Z,13.37
2018-10-12T01:05:58.072Z,13.39
2018-10-12T01:09:02.336Z,13.38
2018-10-12T01:12:31.520Z,13.39
2018-10-12T01:15:35.776Z,13.40
2018-10-12T01:18:40.032Z,13.39
2018-10-12T01:21:44.295Z,13.38
2018-10-12T01:24:48.574Z,13.36
2018-10-12T01:27:52.842Z,13.32
2018-10-12T01:30:57.156Z,13.29
2018-10-12T01:34:01.498Z,13.25
2018-10-12T01:37:05.768Z,13.24
2018-10-12T01:40:10.034Z,13.22
2018-10-12T01:43:14.345Z,13.23
2018-10-12T01:46:18.660Z,13.24
2018-10-12T01:49:22.892Z,13.27
2018-10-12T01:52:27.187Z,13.29
2018-10-12T01:55:31.467Z,13.32
2018-10-12T01:58:36.238Z,13.33
2018-10-12T02:01:40.510Z,13.33
2018-10-12T02:04:44.792Z,13.31
2018-10-12T02:07:49.053Z,13.29
2018-10-12T02:10:53.340Z,13.27
2018-10-12T02:13:57.627Z,13.25
2018-10-12T02:17:01.924Z,13.22
2018-10-12T02:20:06.281Z,13.22
2018-10-12T02:23:10.552Z,13.21
2018-10-12T02:26:14.798Z,13.19
2018-10-12T02:29:19.110Z,13.17
2018-10-12T02:32:23.371Z,13.17
2018-10-12T02:35:27.670Z,13.15
2018-10-12T02:38:31.976Z,13.16
2018-10-12T02:41:36.254Z,13.12
2018-10-12T02:44:40.501Z,13.06
2018-10-12T02:47:44.816Z,13.01
2018-10-12T02:50:49.105Z,12.94
2018-10-12T02:53:53.381Z,12.89
2018-10-12T02:56:57.681Z,12.83
2018-10-12T03:00:02.038Z,12.81
2018-10-12T03:03:06.334Z,12.78
2018-10-12T03:06:10.672Z,12.76
2018-10-12T03:09:14.976Z,12.74
2018-10-12T03:12:19.270Z,12.71
2018-10-12T03:15:23.529Z,12.70
2018-10-12T03:18:27.829Z,12.68
2018-10-12T03:21:32.438Z,12.64
2018-10-12T03:24:36.740Z,12.65
2018-10-12T03:27:58.472Z,12.65
2018-10-12T03:31:03.368Z,12.67
2018-10-12T03:34:07.641Z,12.66
2018-10-12T03:37:11.986Z,12.66
2018-10-12T03:40:16.501Z,12.67
2018-10-12T03:43:20.737Z,12.68
2018-10-12T03:46:25.027Z,12.65
2018-10-12T03:49:29.315Z,12.66
2018-10-12T03:52:33.639Z,12.63
2018-10-12T03:55:37.909Z,12.60
2018-10-12T03:58:42.215Z,12.58
2018-10-12T04:01:46.474Z,12.56
2018-10-12T04:04:50.768Z,12.53
2018-10-12T04:07:55.039Z,12.48
2018-10-12T04:10:59.341Z,12.43
2018-10-12T04:14:03.606Z,12.40
2018-10-12T04:17:07.888Z,12.40
2018-10-12T04:20:12.292Z,12.40
2018-10-12T04:23:16.614Z,12.40
2018-10-12T04:26:20.889Z,12.38
2018-10-12T04:29:25.190Z,12.34
2018-10-12T04:32:29.429Z,12.31
2018-10-12T04:35:33.745Z,12.29
2018-10-12T04:38:56.677Z,12.25
2018-10-12T04:42:00.997Z,12.23
2018-10-12T04:45:05.280Z,12.19
2018-10-12T04:48:09.604Z,12.18
2018-10-12T04:51:17.878Z,12.17
2018-10-12T04:54:22.468Z,12.14
2018-10-12T04:57:26.797Z,12.11
2018-10-12T05:00:31.136Z,12.09
2018-10-12T05:03:35.663Z,12.08
2018-10-12T05:06:39.997Z,12.06
2018-10-12T05:09:44.245Z,12.07
2018-10-12T05:12:48.569Z,12.08
2018-10-12T05:15:52.848Z,12.06
2018-10-12T05:18:57.123Z,12.02
2018-10-12T05:22:01.384Z,11.99
2018-10-12T05:25:05.656Z,11.92
2018-10-12T05:28:09.920Z,11.86
2018-10-12T05:31:14.248Z,11.83
2018-10-12T05:34:18.533Z,11.79
2018-10-12T05:37:22.852Z,11.76
2018-10-12T05:40:27.125Z,11.74
2018-10-12T05:43:31.648Z,11.71
2018-10-12T05:46:35.771Z,11.67
2018-10-12T05:49:57.206Z,11.64
2018-10-12T05:53:01.542Z,11.61
2018-10-12T05:56:06.708Z,11.60
2018-10-12T05:59:11.490Z,11.58
2018-10-12T06:02:15.717Z,11.55
2018-10-12T06:05:20.017Z,11.52
2018-10-12T06:08:24.276Z,11.49
2018-10-12T06:11:28.598Z,11.49
2018-10-12T06:14:32.880Z,11.49
2018-10-12T06:17:37.151Z,11.50
2018-10-12T06:20:41.400Z,11.51
2018-10-12T06:23:45.696Z,11.56
2018-10-12T06:26:49.969Z,11.62
2018-10-12T06:29:54.237Z,11.68
2018-10-12T06:32:58.659Z,11.75
2018-10-12T06:36:02.945Z,11.83
2018-10-12T06:39:07.298Z,11.94
2018-10-12T06:42:11.578Z,12.05
2018-10-12T06:45:15.866Z,12.18
2018-10-12T06:48:20.153Z,12.30
2018-10-12T06:51:24.540Z,12.42
2018-10-12T06:54:28.872Z,12.56
2018-10-12T06:57:33.130Z,12.73
2018-10-12T07:00:37.476Z,12.88
2018-10-12T07:03:41.919Z,13.01
2018-10-12T07:06:46.217Z,13.05
2018-10-12T07:09:50.489Z,13.16
2018-10-12T07:12:54.789Z,13.29
2018-10-12T07:15:59.041Z,13.43
2018-10-12T07:19:03.312Z,13.56
2018-10-12T07:22:07.601Z,13.61
2018-10-12T07:25:11.869Z,13.66
2018-10-12T07:28:16.186Z,13.80
2018-10-12T07:31:20.489Z,13.96
2018-10-12T07:34:24.746Z,14.09
2018-10-12T07:37:29.056Z,14.25
2018-10-12T07:40:33.309Z,14.41
2018-10-12T07:43:37.677Z,14.57
2018-10-12T07:46:41.965Z,14.71
2018-10-12T07:49:46.225Z,14.88
2018-10-12T07:52:50.549Z,15.09
2018-10-12T07:55:54.815Z,15.23
2018-10-12T07:58:59.118Z,15.33
2018-10-12T08:02:03.393Z,15.44
2018-10-12T08:05:07.758Z,15.53
2018-10-12T08:08:12.044Z,15.60
2018-10-12T08:11:16.384Z,15.71
2018-10-12T08:14:20.844Z,15.81
2018-10-12T08:17:24.906Z,15.94
2018-10-12T08:20:29.257Z,16.13
2018-10-12T08:23:33.506Z,16.28
2018-10-12T08:26:37.856Z,16.33
2018-10-12T08:29:42.141Z,16.47
2018-10-12T08:32:46.427Z,16.54
2018-10-12T08:35:50.750Z,16.67
2018-10-12T08:38:55.044Z,16.73
2018-10-12T08:41:59.453Z,16.87
2018-10-12T08:45:03.612Z,16.96
2018-10-12T08:48:08.028Z,17.05
2018-10-12T08:51:12.296Z,17.13
2018-10-12T08:54:16.580Z,17.20
2018-10-12T08:57:20.849Z,17.25
2018-10-12T09:00:25.678Z,17.31
2018-10-12T09:03:29.975Z,17.46
2018-10-12T09:06:34.253Z,17.51
2018-10-12T09:09:38.579Z,17.59
2018-10-12T09:12:42.825Z,17.70
2018-10-12T09:15:47.108Z,17.78
2018-10-12T09:18:51.380Z,17.82
2018-10-12T09:21:55.737Z,17.92
2018-10-12T09:25:00.027Z,18.05
2018-10-12T09:28:04.321Z,18.19
2018-10-12T09:31:08.596Z,18.34
2018-10-12T09:34:12.917Z,18.48
2018-10-12T09:37:17.202Z,18.59
2018-10-12T09:40:21.471Z,18.72
2018-10-12T09:43:25.822Z,18.85
2018-10-12T09:46:30.094Z,18.90
2018-10-12T09:49:34.389Z,18.97
2018-10-12T09:52:38.681Z,19.04
2018-10-12T09:55:43.024Z,19.12
2018-10-12T09:58:47.272Z,19.17
2018-10-12T10:01:56.851Z,19.18
2018-10-12T10:05:06.505Z,19.18
2018-10-12T10:08:10.891Z,19.30
2018-10-12T10:11:15.136Z,19.41
2018-10-12T10:14:19.468Z,19.40
2018-10-12T10:17:23.800Z,19.46
2018-10-12T10:20:28.076Z,19.42
2018-10-12T10:23:32.373Z,19.46
2018-10-12T10:26:36.665Z,19.48
2018-10-12T10:29:40.995Z,19.52
2018-10-12T10:32:45.268Z,19.56
2018-10-12T10:35:49.546Z,19.57
2018-10-12T10:38:53.880Z,19.61
2018-10-12T10:41:58.171Z,19.67
2018-10-12T10:45:02.443Z,19.73
2018-10-12T10:48:06.786Z,19.72
2018-10-12T10:51:11.056Z,19.77
2018-10-12T10:54:15.410Z,19.82
2018-10-12T10:57:19.713Z,19.88
2018-10-12T11:00:24.261Z,19.91
2018-10-12T11:03:28.534Z,19.94
2018-10-12T11:06:32.826Z,19.96
2018-10-12T11:09:37.080Z,20.05
2018-10-12T11:12:41.804Z,20.05
2018-10-12T11:15:46.127Z,20.07
2018-10-12T11:18:50.408Z,20.09
2018-10-12T11:21:54.747Z,20.08
2018-10-12T11:24:59.125Z,20.09
2018-10-12T11:28:03.429Z,20.10
2018-10-12T11:31:08.511Z,20.15
2018-10-12T11:34:12.780Z,20.21
2018-10-12T11:37:17.103Z,20.24
2018-10-12T11:40:21.388Z,20.25
2018-10-12T11:43:35.681Z,20.26
2018-10-12T11:46:40.025Z,20.27
2018-10-12T11:49:44.361Z,20.27
2018-10-12T11:52:48.681Z,20.30
2018-10-12T11:55:53.002Z,20.37
2018-10-12T11:58:57.316Z,20.40
2018-10-12T12:02:01.632Z,20.46
2018-10-12T12:05:06.092Z,20.56
2018-10-12T12:08:10.993Z,20.56
2018-10-12T12:11:15.284Z,20.58
2018-10-12T12:14:19.604Z,20.66
2018-10-12T12:17:23.916Z,20.76
2018-10-12T12:20:28.435Z,20.77
2018-10-12T12:23:32.736Z,20.79
2018-10-12T12:26:37.019Z,20.87
2018-10-12T12:29:41.352Z,20.94
2018-10-12T12:32:45.695Z,20.95
2018-10-12T12:35:50.395Z,20.98
2018-10-12T12:38:54.280Z,21.05
2018-10-12T12:41:58.564Z,21.04
2018-10-12T12:45:02.851Z,21.02
2018-10-12T12:48:07.193Z,21.04
2018-10-12T12:51:12.279Z,21.14
2018-10-12T12:54:16.541Z,21.18
2018-10-12T12:57:20.817Z,21.22
2018-10-12T13:00:25.103Z,21.20
2018-10-12T13:03:29.371Z,21.22
2018-10-12T13:06:33.762Z,21.22
2018-10-12T13:09:37.980Z,21.20
2018-10-12T13:12:42.263Z,21.16
2018-10-12T13:15:46.705Z,21.18
2018-10-12T13:18:50.994Z,21.26
2018-10-12T13:21:55.238Z,21.32
2018-10-12T13:24:59.565Z,21.35
2018-10-12T13:28:03.803Z,21.39
2018-10-12T13:31:08.125Z,21.43
2018-10-12T13:34:12.438Z,21.43
2018-10-12T13:37:16.726Z,21.44
2018-10-12T13:40:21.053Z,21.41
2018-10-12T13:43:25.365Z,21.40
2018-10-12T13:46:29.684Z,21.37
2018-10-12T13:49:33.950Z,21.37
2018-10-12T13:52:38.270Z,21.41
2018-10-12T13:55:42.537Z,21.42
2018-10-12T13:58:46.849Z,21.41
2018-10-12T14:01:51.079Z,21.55
2018-10-12T14:04:55.395Z,21.64
2018-10-12T14:07:59.681Z,21.65
2018-10-12T14:11:04.001Z,21.65
2018-10-12T14:14:08.223Z,21.67
2018-10-12T14:17:12.481Z,21.65
2018-10-12T14:20:16.753Z,21.61
2018-10-12T14:23:20.998Z,21.58
2018-10-12T14:26:25.302Z,21.66
2018-10-12T14:29:29.556Z,21.64
2018-10-12T14:32:33.867Z,21.66
2018-10-12T14:35:38.132Z,21.67
2018-10-12T14:38:42.452Z,21.58
2018-10-12T14:41:46.697Z,21.59
2018-10-12T14:44:51.068Z,21.56
2018-10-12T14:47:55.355Z,21.56
2018-10-12T14:50:59.620Z,21.54
2018-10-12T14:54:03.922Z,21.47
2018-10-12T14:57:13.736Z,21.43
2018-10-12T15:00:18.051Z,21.37
2018-10-12T15:03:22.344Z,21.35
2018-10-12T15:06:26.640Z,21.36
2018-10-12T15:09:30.908Z,21.33
2018-10-12T15:12:35.209Z,21.34
2018-10-12T15:15:39.465Z,21.33
2018-10-12T15:18:43.804Z,21.34
2018-10-12T15:21:48.136Z,21.35
2018-10-12T15:24:52.446Z,21.35
2018-10-12T15:27:56.744Z,21.29
2018-10-12T15:31:01.015Z,21.18
2018-10-12T15:34:05.251Z,21.07
2018-10-12T15:37:09.580Z,20.95
2018-10-12T15:40:13.849Z,20.84
2018-10-12T15:43:18.198Z,20.73
2018-10-12T15:46:22.405Z,20.62
2018-10-12T15:49:26.732Z,20.54
2018-10-12T15:52:31.113Z,20.43
2018-10-12T15:55:35.374Z,20.33
2018-10-12T15:58:39.640Z,20.22
2018-10-12T16:01:43.913Z,20.14
2018-10-12T16:04:48.234Z,20.04
2018-10-12T16:07:52.522Z,19.94
2018-10-12T16:10:56.838Z,19.84
2018-10-12T16:14:01.115Z,19.74
2018-10-12T16:17:05.377Z,19.63
2018-10-12T16:20:09.624Z,19.49
2018-10-12T16:23:13.890Z,19.36
2018-10-12T16:26:22.868Z,19.21
2018-10-12T16:29:27.160Z,19.07
2018-10-12T16:32:31.490Z,18.96
2018-10-12T16:35:35.735Z,18.83
2018-10-12T16:38:40.083Z,18.73
2018-10-12T16:41:44.377Z,18.63
2018-10-12T16:44:48.632Z,18.55
2018-10-12T16:47:52.929Z,18.44
2018-10-12T16:50:57.204Z,18.33
2018-10-12T16:54:01.460Z,18.26
2018-10-12T16:57:05.736Z,18.21
2018-10-12T17:00:10.045Z,18.17
2018-10-12T17:03:14.334Z,18.16
2018-10-12T17:06:18.654Z,18.12
2018-10-12T17:09:22.895Z,18.08
2018-10-12T17:12:27.180Z,18.07
2018-10-12T17:15:31.509Z,18.03
2018-10-12T17:18:35.778Z,18.00
2018-10-12T17:21:40.025Z,17.97
2018-10-12T17:24:44.305Z,17.94
2018-10-12T17:27:48.676Z,17.91
2018-10-12T17:30:52.961Z,17.88
2018-10-12T17:33:57.230Z,17.85
2018-10-12T17:37:01.531Z,17.82
2018-10-12T17:40:06.054Z,17.78
2018-10-12T17:43:10.584Z,17.76
2018-10-12T17:46:15.035Z,17.74
2018-10-12T17:49:19.307Z,17.70
2018-10-12T17:52:23.586Z,17.67
2018-10-12T17:55:27.827Z,17.66
2018-10-12T17:58:32.724Z,17.63
2018-10-12T18:01:36.969Z,17.59
2018-10-12T18:04:41.216Z,17.56
2018-10-12T18:07:45.463Z,17.52
2018-10-12T18:10:49.777Z,17.48
2018-10-12T18:13:54.008Z,17.46
2018-10-12T18:16:58.276Z,17.45
2018-10-12T18:20:02.550Z,17.39
2018-10-12T18:23:06.974Z,17.34
2018-10-12T18:26:11.264Z,17.32
2018-10-12T18:29:15.913Z,17.31
2018-10-12T18:32:20.192Z,17.30
2018-10-12T18:35:24.498Z,17.28
2018-10-12T18:38:28.802Z,17.26
2018-10-12T18:41:33.103Z,17.23
2018-10-12T18:44:37.369Z,17.23
2018-10-12T18:47:41.711Z,17.22
2018-10-12T18:50:45.929Z,17.21
2018-10-12T18:53:50.234Z,17.19
2018-10-12T18:56:54.511Z,17.18
2018-10-12T18:59:58.855Z,17.17
2018-10-12T19:03:03.152Z,17.16
2018-10-12T19:06:07.445Z,17.13
2018-10-12T19:09:11.712Z,17.10
2018-10-12T19:12:16.037Z,17.07
2018-10-12T19:15:20.324Z,17.01
2018-10-12T19:18:24.616Z,17.00
2018-10-12T19:21:28.928Z,16.98
2018-10-12T19:24:33.206Z,16.95
2018-10-12T19:27:37.493Z,16.90
2018-10-12T19:30:41.811Z,16.89
2018-10-12T19:33:46.090Z,16.87
2018-10-12T19:36:50.390Z,16.85
2018-10-12T19:39:54.683Z,16.82
2018-10-12T19:42:59.007Z,16.80
2018-10-12T19:46:03.268Z,16.81
2018-10-12T19:49:07.561Z,16.78
2018-10-12T19:52:11.807Z,16.74
2018-10-12T19:55:16.133Z,16.71
2018-10-12T19:58:20.445Z,16.69
2018-10-12T20:01:24.758Z,16.69
2018-10-12T20:04:29.053Z,16.67
2018-10-12T20:07:33.345Z,16.67
2018-10-12T20:10:37.672Z,16.67
2018-10-12T20:13:41.926Z,16.65
2018-10-12T20:16:46.248Z,16.69
2018-10-12T20:19:50.512Z,16.70
2018-10-12T20:22:54.829Z,16.69
2018-10-12T20:25:59.091Z,16.69
2018-10-12T20:29:03.341Z,16.72
2018-10-12T20:32:08.110Z,16.73
2018-10-12T20:35:12.372Z,16.73
2018-10-12T20:38:17.181Z,16.74
2018-10-12T20:41:21.832Z,16.74
2018-10-12T20:44:26.151Z,16.74
2018-10-12T20:47:31.508Z,16.74
2018-10-12T20:50:36.435Z,16.73
2018-10-12T20:53:41.197Z,16.72
2018-10-12T20:56:45.474Z,16.71
2018-10-12T20:59:50.339Z,16.71
2018-10-12T21:02:54.923Z,16.73
2018-10-12T21:05:59.788Z,16.74
2018-10-12T21:09:06.229Z,16.75
2018-10-12T21:12:10.905Z,16.76
2018-10-12T21:15:15.233Z,16.80
2018-10-12T21:18:19.799Z,16.83
2018-10-12T21:21:24.332Z,16.83
2018-10-12T21:24:28.945Z,16.85
2018-10-12T21:27:33.580Z,16.89
2018-10-12T21:30:38.459Z,16.91
2018-10-12T21:33:43.569Z,16.95
2018-10-12T21:36:48.268Z,16.97
2018-10-12T21:39:52.557Z,16.98
2018-10-12T21:42:56.875Z,16.99
2018-10-12T21:46:01.142Z,17.02
2018-10-12T21:49:05.426Z,17.01
2018-10-12T21:52:10.181Z,17.07
2018-10-12T21:55:14.466Z,17.13
2018-10-12T21:58:18.722Z,17.19
2018-10-12T22:01:23.025Z,17.23
2018-10-12T22:04:27.262Z,17.26
2018-10-12T22:07:31.551Z,17.30
2018-10-12T22:10:35.826Z,17.34
2018-10-12T22:13:40.112Z,17.38
2018-10-12T22:16:44.389Z,17.46
2018-10-12T22:19:48.913Z,17.53
2018-10-12T22:22:53.284Z,17.55
2018-10-12T22:25:57.638Z,17.59
2018-10-12T22:29:01.859Z,17.56
2018-10-12T22:32:06.197Z,17.56
2018-10-12T22:35:10.466Z,17.58
2018-10-12T22:38:14.741Z,17.60
2018-10-12T22:41:19.015Z,17.61
2018-10-12T22:44:23.289Z,17.64
2018-10-12T22:47:27.585Z,17.65
2018-10-12T22:50:31.889Z,17.59
2018-10-12T22:53:36.142Z,17.56
2018-10-12T22:56:40.438Z,17.53
2018-10-12T22:59:44.718Z,17.55
2018-10-12T23:02:49.020Z,17.59
2018-10-12T23:05:53.272Z,17.59
2018-10-12T23:08:57.581Z,17.55
2018-10-12T23:12:01.873Z,17.52
2018-10-12T23:15:06.157Z,17.49
2018-10-12T23:18:10.429Z,17.41
2018-10-12T23:21:14.698Z,17.39
2018-10-12T23:24:18.992Z,17.37
2018-10-12T23:27:23.261Z,17.39
2018-10-12T23:30:27.575Z,17.41
2018-10-12T23:33:49.110Z,17.41
2018-10-12T23:36:53.391Z,17.44
2018-10-12T23:39:57.672Z,17.42
2018-10-12T23:43:01.967Z,17.43
2018-10-12T23:46:06.226Z,17.43
2018-10-12T23:49:10.476Z,17.45
2018-10-12T23:52:14.714Z,17.44
2018-10-12T23:55:18.987Z,17.44
2018-10-12T23:58:23.279Z,17.43
